createdAt,value
2018-12-17T00:00:05.319Z,3.60
2018-12-17T00:01:05.333Z,3.66
2018-12-17T00:02:05.340Z,3.75
2018-12-17T00:03:05.345Z,3.68
2018-12-17T00:04:05.494Z,3.62
2018-12-17T00:05:05.523Z,3.61
2018-12-17T00:06:05.381Z,3.65
2018-12-17T00:07:05.390Z,3.62
2018-12-17T00:08:05.396Z,3.55
2018-12-17T00:09:05.410Z,3.58
2018-12-17T00:10:05.436Z,3.66
2018-12-17T00:11:05.424Z,3.58
2018-12-17T00:12:05.436Z,3.61
2018-12-17T00:13:05.445Z,3.60
2018-12-17T00:14:05.466Z,3.62
2018-12-17T00:15:05.466Z,3.62
2018-12-17T00:16:05.546Z,3.61
2018-12-17T00:17:05.487Z,3.57
2018-12-17T00:18:05.494Z,3.58
2018-12-17T00:19:05.529Z,3.58
2018-12-17T00:20:05.530Z,3.55
2018-12-17T00:21:05.527Z,3.58
2018-12-17T00:22:05.541Z,3.47
2018-12-17T00:23:05.543Z,3.47
2018-12-17T00:24:05.557Z,3.57
2018-12-17T00:25:05.567Z,3.54
2018-12-17T00:26:05.574Z,3.54
2018-12-17T00:27:05.582Z,3.54
2018-12-17T00:28:08.324Z,3.61
2018-12-17T00:29:05.618Z,3.61
2018-12-17T00:30:05.612Z,3.58
2018-12-17T00:31:05.620Z,3.51
2018-12-17T00:32:05.636Z,3.58
2018-12-17T00:33:05.644Z,3.57
2018-12-17T00:34:05.656Z,3.55
2018-12-17T00:35:05.659Z,3.58
2018-12-17T00:36:05.673Z,3.52
2018-12-17T00:37:05.678Z,3.58
2018-12-17T00:38:05.696Z,3.55
2018-12-17T00:39:05.704Z,3.57
2018-12-17T00:40:05.712Z,3.51
2018-12-17T00:41:05.721Z,3.60
2018-12-17T00:42:05.735Z,3.52
2018-12-17T00:43:05.739Z,3.57
2018-12-17T00:44:05.747Z,3.51
2018-12-17T00:45:05.771Z,3.68
2018-12-17T00:46:05.772Z,3.60
2018-12-17T00:47:05.778Z,3.68
2018-12-17T00:48:05.795Z,3.57
2018-12-17T00:49:05.804Z,3.60
2018-12-17T00:50:05.809Z,3.58
2018-12-17T00:51:05.818Z,3.66
2018-12-17T00:52:05.828Z,3.61
2018-12-17T00:53:05.835Z,3.58
2018-12-17T00:54:05.844Z,3.54
2018-12-17T00:55:05.858Z,3.65
2018-12-17T00:56:05.867Z,3.57
2018-12-17T00:57:05.896Z,3.55
2018-12-17T00:58:05.899Z,3.55
2018-12-17T00:59:05.902Z,3.65
2018-12-17T01:00:05.905Z,3.66
2018-12-17T01:01:05.913Z,3.61
2018-12-17T01:02:05.927Z,3.61
2018-12-17T01:03:06.291Z,3.76
2018-12-17T01:04:05.950Z,3.76
2018-12-17T01:05:05.958Z,3.72
2018-12-17T01:06:05.963Z,3.61
2018-12-17T01:07:06.005Z,3.69
2018-12-17T01:08:05.994Z,3.73
2018-12-17T01:09:06.091Z,3.69
2018-12-17T01:10:06.116Z,3.70
2018-12-17T01:11:06.013Z,3.72
2018-12-17T01:12:06.027Z,3.68
2018-12-17T01:13:06.034Z,3.65
2018-12-17T01:14:06.055Z,3.79
2018-12-17T01:15:06.052Z,3.62
2018-12-17T01:16:06.068Z,3.75
2018-12-17T01:17:06.072Z,3.65
2018-12-17T01:18:06.080Z,3.68
2018-12-17T01:19:06.084Z,3.69
2018-12-17T01:20:06.093Z,3.69
2018-12-17T01:21:06.106Z,3.65
2018-12-17T01:22:06.118Z,3.68
2018-12-17T01:23:06.121Z,3.76
2018-12-17T01:24:06.335Z,3.62
2018-12-17T01:25:06.141Z,3.58
2018-12-17T01:26:06.157Z,3.68
2018-12-17T01:27:06.162Z,3.60
2018-12-17T01:28:06.171Z,3.57
2018-12-17T01:29:06.186Z,3.62
2018-12-17T01:30:06.193Z,3.69
2018-12-17T01:31:06.198Z,3.76
2018-12-17T01:32:06.220Z,3.69
2018-12-17T01:33:06.221Z,3.68
2018-12-17T01:34:06.230Z,3.70
2018-12-17T01:35:06.238Z,3.69
2018-12-17T01:36:06.249Z,3.69
2018-12-17T01:37:06.756Z,3.62
2018-12-17T01:38:06.269Z,3.62
2018-12-17T01:39:06.283Z,3.70
2018-12-17T01:40:06.288Z,3.66
2018-12-17T01:41:06.304Z,3.66
2018-12-17T01:42:06.324Z,3.68
2018-12-17T01:43:06.322Z,3.66
2018-12-17T01:44:06.326Z,3.68
2018-12-17T01:45:06.340Z,3.70
2018-12-17T01:46:06.349Z,3.76
2018-12-17T01:47:06.355Z,3.72
2018-12-17T01:48:06.369Z,3.66
2018-12-17T01:49:06.379Z,3.69
2018-12-17T01:50:06.390Z,3.68
2018-12-17T01:51:06.399Z,3.75
2018-12-17T01:52:06.405Z,3.69
2018-12-17T01:53:06.418Z,3.76
2018-12-17T01:54:06.425Z,3.68
2018-12-17T01:55:06.439Z,3.66
2018-12-17T01:56:06.458Z,3.70
2018-12-17T01:57:06.460Z,3.73
2018-12-17T01:58:06.492Z,3.72
2018-12-17T01:59:06.476Z,3.72
2018-12-17T02:00:06.485Z,3.72
2018-12-17T02:01:06.496Z,3.73
2018-12-17T02:02:06.507Z,3.70
2018-12-17T02:03:06.515Z,3.75
2018-12-17T02:04:06.527Z,3.69
2018-12-17T02:05:06.534Z,3.68
2018-12-17T02:06:06.547Z,3.65
2018-12-17T02:07:06.558Z,3.70
2018-12-17T02:08:06.564Z,3.72
2018-12-17T02:09:06.575Z,3.72
2018-12-17T02:10:06.589Z,3.72
2018-12-17T02:11:06.751Z,3.73
2018-12-17T02:12:06.627Z,3.66
2018-12-17T02:13:06.614Z,3.60
2018-12-17T02:14:06.624Z,3.65
2018-12-17T02:15:06.634Z,3.60
2018-12-17T02:16:06.641Z,3.79
2018-12-17T02:17:06.652Z,3.62
2018-12-17T02:18:06.665Z,3.68
2018-12-17T02:19:06.670Z,3.75
2018-12-17T02:20:06.682Z,3.72
2018-12-17T02:21:06.691Z,3.62
2018-12-17T02:22:06.701Z,3.69
2018-12-17T02:23:06.711Z,3.73
2018-12-17T02:24:06.719Z,3.68
2018-12-17T02:25:06.733Z,3.70
2018-12-17T02:26:06.743Z,3.72
2018-12-17T02:27:06.750Z,3.76
2018-12-17T02:28:06.759Z,3.78
2018-12-17T02:29:06.769Z,3.70
2018-12-17T02:30:06.794Z,3.73
2018-12-17T02:31:06.790Z,3.66
2018-12-17T02:32:06.797Z,3.72
2018-12-17T02:33:06.905Z,3.69
2018-12-17T02:34:06.821Z,3.72
2018-12-17T02:35:06.823Z,3.75
2018-12-17T02:36:06.841Z,3.83
2018-12-17T02:37:06.845Z,3.80
2018-12-17T02:38:06.860Z,3.78
2018-12-17T02:39:06.869Z,3.83
2018-12-17T02:40:06.875Z,3.84
2018-12-17T02:41:06.886Z,3.83
2018-12-17T02:42:06.897Z,3.90
2018-12-17T02:43:06.906Z,3.86
2018-12-17T02:44:06.912Z,3.80
2018-12-17T02:45:06.928Z,3.84
2018-12-17T02:46:06.954Z,3.79
2018-12-17T02:47:06.946Z,3.87
2018-12-17T02:48:06.954Z,3.84
2018-12-17T02:49:06.965Z,3.80
2018-12-17T02:50:06.971Z,3.90
2018-12-17T02:51:06.986Z,3.88
2018-12-17T02:52:06.991Z,3.91
2018-12-17T02:53:07.004Z,3.84
2018-12-17T02:54:07.012Z,3.93
2018-12-17T02:55:07.153Z,3.93
2018-12-17T02:56:07.033Z,3.93
2018-12-17T02:57:07.042Z,3.96
2018-12-17T02:58:07.057Z,3.96
2018-12-17T02:59:07.066Z,4.00
2018-12-17T03:00:07.076Z,3.96
2018-12-17T03:01:07.081Z,3.90
2018-12-17T03:02:07.472Z,3.93
2018-12-17T03:03:07.102Z,3.93
2018-12-17T03:04:07.112Z,3.79
2018-12-17T03:05:07.122Z,3.80
2018-12-17T03:06:07.133Z,3.83
2018-12-17T03:07:07.141Z,3.80
2018-12-17T03:08:07.152Z,3.84
2018-12-17T03:09:07.161Z,3.88
2018-12-17T03:10:07.172Z,3.86
2018-12-17T03:11:07.185Z,3.84
2018-12-17T03:12:07.192Z,3.90
2018-12-17T03:13:07.207Z,3.87
2018-12-17T03:14:07.213Z,3.80
2018-12-17T03:15:07.232Z,3.80
2018-12-17T03:16:07.313Z,3.83
2018-12-17T03:17:07.246Z,3.91
2018-12-17T03:18:07.253Z,3.84
2018-12-17T03:19:07.259Z,3.87
2018-12-17T03:20:07.269Z,3.84
2018-12-17T03:21:07.283Z,3.83
2018-12-17T03:22:07.292Z,3.76
2018-12-17T03:23:07.303Z,3.76
2018-12-17T03:24:07.311Z,3.78
2018-12-17T03:25:07.320Z,3.76
2018-12-17T03:26:07.332Z,3.73
2018-12-17T03:27:07.340Z,3.70
2018-12-17T03:28:07.349Z,3.68
2018-12-17T03:29:07.359Z,3.78
2018-12-17T03:30:07.373Z,3.76
2018-12-17T03:31:07.488Z,3.84
2018-12-17T03:32:07.418Z,3.86
2018-12-17T03:33:07.401Z,3.72
2018-12-17T03:34:07.410Z,3.76
2018-12-17T03:35:07.420Z,3.75
2018-12-17T03:36:07.431Z,3.73
2018-12-17T03:37:07.439Z,3.76
2018-12-17T03:38:07.449Z,3.75
2018-12-17T03:39:07.459Z,3.72
2018-12-17T03:40:07.471Z,3.70
2018-12-17T03:41:07.479Z,3.73
2018-12-17T03:42:07.491Z,3.73
2018-12-17T03:43:07.496Z,3.69
2018-12-17T03:44:07.506Z,3.75
2018-12-17T03:45:07.522Z,3.75
2018-12-17T03:46:07.532Z,3.72
2018-12-17T03:47:07.537Z,3.73
2018-12-17T03:48:07.557Z,3.70
2018-12-17T03:49:07.557Z,3.79
2018-12-17T03:50:07.568Z,3.73
2018-12-17T03:51:07.586Z,3.73
2018-12-17T03:52:07.588Z,3.73
2018-12-17T03:53:07.599Z,3.78
2018-12-17T03:54:07.662Z,3.70
2018-12-17T03:55:07.622Z,3.73
2018-12-17T03:56:07.634Z,3.72
2018-12-17T03:57:07.638Z,3.70
2018-12-17T03:58:07.647Z,3.73
2018-12-17T03:59:07.654Z,3.75
2018-12-17T04:00:07.664Z,3.72
2018-12-17T04:01:07.676Z,3.76
2018-12-17T04:02:07.687Z,3.72
2018-12-17T04:03:07.692Z,3.78
2018-12-17T04:04:07.703Z,3.70
2018-12-17T04:05:07.719Z,3.79
2018-12-17T04:06:07.723Z,3.87
2018-12-17T04:07:07.744Z,3.79
2018-12-17T04:08:07.742Z,3.83
2018-12-17T04:09:07.754Z,3.79
2018-12-17T04:10:07.767Z,3.76
2018-12-17T04:11:07.770Z,3.75
2018-12-17T04:12:07.792Z,3.79
2018-12-17T04:13:07.795Z,3.84
2018-12-17T04:14:07.802Z,3.84
2018-12-17T04:15:07.815Z,3.84
2018-12-17T04:16:07.823Z,3.86
2018-12-17T04:17:07.833Z,3.88
2018-12-17T04:18:07.844Z,3.86
2018-12-17T04:19:07.865Z,3.91
2018-12-17T04:20:07.862Z,3.90
2018-12-17T04:21:07.872Z,3.79
2018-12-17T04:22:07.884Z,3.90
2018-12-17T04:23:07.890Z,3.96
2018-12-17T04:24:07.902Z,3.90
2018-12-17T04:25:07.911Z,3.94
2018-12-17T04:26:07.921Z,3.93
2018-12-17T04:27:07.928Z,4.04
2018-12-17T04:28:07.937Z,3.91
2018-12-17T04:29:07.951Z,3.93
2018-12-17T04:30:07.975Z,3.80
2018-12-17T04:31:07.969Z,3.83
2018-12-17T04:32:07.995Z,3.90
2018-12-17T04:33:07.992Z,3.91
2018-12-17T04:34:07.999Z,3.96
2018-12-17T04:36:08.017Z,3.98
2018-12-17T04:37:08.031Z,3.83
2018-12-17T04:38:08.039Z,3.96
2018-12-17T04:39:08.050Z,3.88
2018-12-17T04:40:08.060Z,3.80
2018-12-17T04:41:08.068Z,3.87
2018-12-17T04:42:08.084Z,3.94
2018-12-17T04:43:08.089Z,3.88
2018-12-17T04:44:08.100Z,3.83
2018-12-17T04:45:08.116Z,3.80
2018-12-17T04:46:08.121Z,3.86
2018-12-17T04:47:08.132Z,3.84
2018-12-17T04:48:08.180Z,3.79
2018-12-17T04:49:08.154Z,3.86
2018-12-17T04:50:08.164Z,3.79
2018-12-17T04:51:08.169Z,3.79
2018-12-17T04:52:08.179Z,3.76
2018-12-17T04:53:08.191Z,3.75
2018-12-17T04:54:08.202Z,3.80
2018-12-17T04:55:08.208Z,3.73
2018-12-17T04:56:08.220Z,3.75
2018-12-17T04:57:08.231Z,3.76
2018-12-17T04:58:08.244Z,3.84
2018-12-17T04:59:14.607Z,3.80
2018-12-17T05:00:08.255Z,3.80
2018-12-17T05:01:08.273Z,3.76
2018-12-17T05:02:08.278Z,3.80
2018-12-17T05:03:08.292Z,3.75
2018-12-17T05:04:08.299Z,3.79
2018-12-17T05:05:08.311Z,3.76
2018-12-17T05:06:08.316Z,3.80
2018-12-17T05:07:08.326Z,3.83
2018-12-17T05:08:08.368Z,3.87
2018-12-17T05:09:08.350Z,3.87
2018-12-17T05:10:08.369Z,3.79
2018-12-17T05:11:08.365Z,3.84
2018-12-17T05:12:08.379Z,3.83
2018-12-17T05:13:08.383Z,3.86
2018-12-17T05:14:08.394Z,3.84
2018-12-17T05:15:08.406Z,3.87
2018-12-17T05:16:08.414Z,3.86
2018-12-17T05:17:08.429Z,3.79
2018-12-17T05:18:08.438Z,3.93
2018-12-17T05:19:08.443Z,3.83
2018-12-17T05:20:08.452Z,3.84
2018-12-17T05:21:08.465Z,3.83
2018-12-17T05:22:08.473Z,3.86
2018-12-17T05:23:08.482Z,3.79
2018-12-17T05:24:08.508Z,3.86
2018-12-17T05:25:08.502Z,3.79
2018-12-17T05:26:08.511Z,3.78
2018-12-17T05:27:08.524Z,3.80
2018-12-17T05:28:08.530Z,3.79
2018-12-17T05:29:08.544Z,3.79
2018-12-17T05:30:08.553Z,3.87
2018-12-17T05:31:08.561Z,3.80
2018-12-17T05:32:08.593Z,3.93
2018-12-17T05:33:08.585Z,3.96
2018-12-17T05:34:08.596Z,3.91
2018-12-17T05:35:08.599Z,3.96
2018-12-17T05:36:08.614Z,3.91
2018-12-17T05:37:08.621Z,3.96
2018-12-17T05:38:08.631Z,3.97
2018-12-17T05:39:08.639Z,3.93
2018-12-17T05:40:08.654Z,3.87
2018-12-17T05:41:08.665Z,3.91
2018-12-17T05:42:08.670Z,3.96
2018-12-17T05:43:08.682Z,3.90
2018-12-17T05:44:08.891Z,3.88
2018-12-17T05:45:08.700Z,3.90
2018-12-17T05:46:08.717Z,3.94
2018-12-17T05:47:08.720Z,3.91
2018-12-17T05:48:08.732Z,3.87
2018-12-17T05:49:08.742Z,3.97
2018-12-17T05:50:08.752Z,3.96
2018-12-17T05:51:08.760Z,3.93
2018-12-17T05:52:08.768Z,3.94
2018-12-17T05:53:08.788Z,3.93
2018-12-17T05:54:08.790Z,3.93
2018-12-17T05:55:08.803Z,3.88
2018-12-17T05:56:08.821Z,3.87
2018-12-17T05:57:08.831Z,3.88
2018-12-17T05:58:08.830Z,4.05
2018-12-17T05:59:08.850Z,4.04
2018-12-17T06:00:08.848Z,4.02
2018-12-17T06:01:08.858Z,4.05
2018-12-17T06:02:08.868Z,4.06
2018-12-17T06:03:08.903Z,4.06
2018-12-17T06:04:08.890Z,4.05
2018-12-17T06:05:08.899Z,4.06
2018-12-17T06:06:08.910Z,4.02
2018-12-17T06:07:08.916Z,3.97
2018-12-17T06:08:08.930Z,4.02
2018-12-17T06:09:08.937Z,4.04
2018-12-17T06:10:08.950Z,4.05
2018-12-17T06:11:08.961Z,4.02
2018-12-17T06:12:08.980Z,4.00
2018-12-17T06:13:08.981Z,4.00
2018-12-17T06:14:08.990Z,4.05
2018-12-17T06:15:08.996Z,4.04
2018-12-17T06:16:09.005Z,4.02
2018-12-17T06:17:09.016Z,3.98
2018-12-17T06:18:09.027Z,4.00
2018-12-17T06:19:09.035Z,4.02
2018-12-17T06:20:09.054Z,4.02
2018-12-17T06:21:09.058Z,4.11
2018-12-17T06:22:09.102Z,4.00
2018-12-17T06:23:09.094Z,4.14
2018-12-17T06:24:09.088Z,4.14
2018-12-17T06:25:09.102Z,4.09
2018-12-17T06:26:09.114Z,4.15
2018-12-17T06:27:09.117Z,4.12
2018-12-17T06:28:09.129Z,4.09
2018-12-17T06:29:09.137Z,4.09
2018-12-17T06:30:09.164Z,4.12
2018-12-17T06:31:09.168Z,4.04
2018-12-17T06:32:09.167Z,4.14
2018-12-17T06:33:15.502Z,4.14
2018-12-17T06:34:09.188Z,4.14
2018-12-17T06:36:09.206Z,4.11
2018-12-17T06:37:09.224Z,4.16
2018-12-17T06:38:09.330Z,4.14
2018-12-17T06:39:09.238Z,4.16
2018-12-17T06:40:10.367Z,4.09
2018-12-17T06:41:09.255Z,4.16
2018-12-17T06:42:09.264Z,4.22
2018-12-17T06:43:09.277Z,4.16
2018-12-17T06:44:09.287Z,4.23
2018-12-17T06:45:09.297Z,4.18
2018-12-17T06:46:09.310Z,4.18
2018-12-17T06:47:09.320Z,4.20
2018-12-17T06:48:09.330Z,4.23
2018-12-17T06:49:09.337Z,4.24
2018-12-17T06:50:09.348Z,4.22
2018-12-17T06:51:09.361Z,4.29
2018-12-17T06:52:09.369Z,4.36
2018-12-17T06:53:09.385Z,4.27
2018-12-17T06:54:09.390Z,4.27
2018-12-17T06:55:09.403Z,4.29
2018-12-17T06:56:09.408Z,4.34
2018-12-17T06:57:09.417Z,4.34
2018-12-17T06:58:09.423Z,4.36
2018-12-17T06:59:09.436Z,4.29
2018-12-17T07:00:09.455Z,4.26
2018-12-17T07:01:09.458Z,4.26
2018-12-17T07:02:09.473Z,4.32
2018-12-17T07:03:09.483Z,4.32
2018-12-17T07:04:09.490Z,4.33
2018-12-17T07:05:09.504Z,4.27
2018-12-17T07:06:09.524Z,4.32
2018-12-17T07:07:09.549Z,4.30
2018-12-17T07:08:09.528Z,4.24
2018-12-17T07:09:09.536Z,4.24
2018-12-17T07:10:09.548Z,4.27
2018-12-17T07:11:09.563Z,4.30
2018-12-17T07:12:09.565Z,4.37
2018-12-17T07:13:09.575Z,4.36
2018-12-17T07:14:09.588Z,4.44
2018-12-17T07:15:09.744Z,4.42
2018-12-17T07:16:09.606Z,4.36
2018-12-17T07:17:09.618Z,4.36
2018-12-17T07:18:09.843Z,4.42
2018-12-17T07:19:09.637Z,4.44
2018-12-17T07:20:09.758Z,4.40
2018-12-17T07:21:09.657Z,4.44
2018-12-17T07:22:09.667Z,4.48
2018-12-17T07:23:09.675Z,4.42
2018-12-17T07:24:09.699Z,4.37
2018-12-17T07:25:09.695Z,4.45
2018-12-17T07:26:09.710Z,4.37
2018-12-17T07:27:09.716Z,4.44
2018-12-17T07:28:09.731Z,4.41
2018-12-17T07:29:09.739Z,4.37
2018-12-17T07:30:09.749Z,4.41
2018-12-17T07:31:09.768Z,4.36
2018-12-17T07:32:09.766Z,4.36
2018-12-17T07:33:09.896Z,4.45
2018-12-17T07:34:09.785Z,4.40
2018-12-17T07:35:09.798Z,4.41
2018-12-17T07:36:09.805Z,4.37
2018-12-17T07:37:09.818Z,4.48
2018-12-17T07:38:09.832Z,4.45
2018-12-17T07:39:09.846Z,4.50
2018-12-17T07:40:09.849Z,4.50
2018-12-17T07:41:09.864Z,4.45
2018-12-17T07:42:09.869Z,4.45
2018-12-17T07:43:09.984Z,4.45
2018-12-17T07:44:09.889Z,4.48
2018-12-17T07:45:09.907Z,4.44
2018-12-17T07:46:09.913Z,4.44
2018-12-17T07:47:09.919Z,4.47
2018-12-17T07:48:09.950Z,4.45
2018-12-17T07:49:09.937Z,4.55
2018-12-17T07:50:09.947Z,4.51
2018-12-17T07:51:09.974Z,4.51
2018-12-17T07:52:09.968Z,4.52
2018-12-17T07:53:09.985Z,4.55
2018-12-17T07:54:09.994Z,4.55
2018-12-17T07:55:09.991Z,4.58
2018-12-17T07:56:10.015Z,4.60
2018-12-17T07:57:10.216Z,4.59
2018-12-17T07:58:10.023Z,4.60
2018-12-17T07:59:10.086Z,4.52
2018-12-17T08:00:10.054Z,4.55
2018-12-17T08:01:10.054Z,4.65
2018-12-17T08:02:10.066Z,4.67
2018-12-17T08:03:10.074Z,4.63
2018-12-17T08:04:10.087Z,4.65
2018-12-17T08:05:10.094Z,4.58
2018-12-17T08:06:10.101Z,4.62
2018-12-17T08:07:10.312Z,4.69
2018-12-17T08:08:10.125Z,4.62
2018-12-17T08:09:10.134Z,4.67
2018-12-17T08:10:10.142Z,4.60
2018-12-17T08:11:10.154Z,4.67
2018-12-17T08:12:10.164Z,4.67
2018-12-17T08:13:10.173Z,4.66
2018-12-17T08:14:10.383Z,4.78
2018-12-17T08:15:10.396Z,4.66
2018-12-17T08:16:10.204Z,4.72
2018-12-17T08:17:10.213Z,4.73
2018-12-17T08:18:10.231Z,4.72
2018-12-17T08:19:10.236Z,4.77
2018-12-17T08:20:10.263Z,4.66
2018-12-17T08:21:10.256Z,4.62
2018-12-17T08:22:10.264Z,4.69
2018-12-17T08:23:10.277Z,4.67
2018-12-17T08:24:10.285Z,4.70
2018-12-17T08:25:10.301Z,4.72
2018-12-17T08:26:10.305Z,4.73
2018-12-17T08:27:10.324Z,4.73
2018-12-17T08:28:11.255Z,4.72
2018-12-17T08:29:11.344Z,4.73
2018-12-17T08:30:11.478Z,4.72
2018-12-17T08:31:11.659Z,4.77
2018-12-17T08:32:11.237Z,4.70
2018-12-17T08:33:10.518Z,4.85
2018-12-17T08:34:10.428Z,4.82
2018-12-17T08:35:10.396Z,4.80
2018-12-17T08:36:10.404Z,4.84
2018-12-17T08:37:10.433Z,4.85
2018-12-17T08:38:10.453Z,4.94
2018-12-17T08:39:10.438Z,4.94
2018-12-17T08:40:10.448Z,4.99
2018-12-17T08:41:10.456Z,4.99
2018-12-17T08:42:10.467Z,4.96
2018-12-17T08:43:10.493Z,4.94
2018-12-17T08:44:10.493Z,4.96
2018-12-17T08:45:10.576Z,4.99
2018-12-17T08:46:10.515Z,5.02
2018-12-17T08:47:10.520Z,5.03
2018-12-17T08:48:10.571Z,5.07
2018-12-17T08:49:10.551Z,5.09
2018-12-17T08:50:10.564Z,5.10
2018-12-17T08:51:10.569Z,5.12
2018-12-17T08:52:10.570Z,5.12
2018-12-17T08:53:10.589Z,5.17
2018-12-17T08:54:10.594Z,5.18
2018-12-17T08:55:10.655Z,5.22
2018-12-17T08:57:10.624Z,5.25
2018-12-17T08:58:10.648Z,5.28
2018-12-17T08:59:10.643Z,5.31
2018-12-17T09:00:11.139Z,5.28
2018-12-17T09:01:10.723Z,5.39
2018-12-17T09:02:10.778Z,5.35
2018-12-17T09:03:10.958Z,5.43
2018-12-17T09:04:10.694Z,5.54
2018-12-17T09:05:10.775Z,5.48
2018-12-17T09:06:10.717Z,5.49
2018-12-17T09:07:10.731Z,5.46
2018-12-17T09:08:10.816Z,5.40
2018-12-17T09:09:10.745Z,5.53
2018-12-17T09:10:10.774Z,5.48
2018-12-17T09:11:10.779Z,5.60
2018-12-17T09:12:10.779Z,5.54
2018-12-17T09:13:10.788Z,5.60
2018-12-17T09:14:10.800Z,5.57
2018-12-17T09:15:10.813Z,5.58
2018-12-17T09:16:11.024Z,5.63
2018-12-17T09:17:10.828Z,5.57
2018-12-17T09:18:10.877Z,5.61
2018-12-17T09:19:11.611Z,5.64
2018-12-17T09:20:10.860Z,5.63
2018-12-17T09:21:10.877Z,5.57
2018-12-17T09:22:10.886Z,5.65
2018-12-17T09:23:10.921Z,5.64
2018-12-17T09:24:10.912Z,5.58
2018-12-17T09:25:10.916Z,5.65
2018-12-17T09:26:10.927Z,5.61
2018-12-17T09:27:10.947Z,5.71
2018-12-17T09:28:10.965Z,5.67
2018-12-17T09:29:10.958Z,5.64
2018-12-17T09:30:18.056Z,5.67
2018-12-17T09:31:10.978Z,5.63
2018-12-17T09:32:10.991Z,5.67
2018-12-17T09:33:11.005Z,5.68
2018-12-17T09:34:11.009Z,5.68
2018-12-17T09:35:11.023Z,5.74
2018-12-17T09:36:11.031Z,5.76
2018-12-17T09:37:11.046Z,5.74
2018-12-17T09:38:11.064Z,5.68
2018-12-17T09:39:11.068Z,5.76
2018-12-17T09:40:11.078Z,5.83
2018-12-17T09:41:11.088Z,5.79
2018-12-17T09:42:11.102Z,5.85
2018-12-17T09:43:11.108Z,5.85
2018-12-17T09:44:11.134Z,5.85
2018-12-17T09:45:11.130Z,5.82
2018-12-17T09:46:11.338Z,5.83
2018-12-17T09:47:11.333Z,5.81
2018-12-17T09:48:11.166Z,5.86
2018-12-17T09:49:11.174Z,5.85
2018-12-17T09:50:12.406Z,5.83
2018-12-17T09:51:11.195Z,5.78
2018-12-17T09:52:11.239Z,5.82
2018-12-17T09:53:12.468Z,5.93
2018-12-17T09:54:11.335Z,6.01
2018-12-17T09:55:11.238Z,5.90
2018-12-17T09:56:11.246Z,5.90
2018-12-17T09:57:11.304Z,5.89
2018-12-17T09:58:11.264Z,5.90
2018-12-17T09:59:11.281Z,5.86
2018-12-17T10:00:11.286Z,5.91
2018-12-17T10:01:11.301Z,5.86
2018-12-17T10:02:11.328Z,5.99
2018-12-17T10:03:11.332Z,6.03
2018-12-17T10:04:11.327Z,5.93
2018-12-17T10:05:11.344Z,5.94
2018-12-17T10:06:11.352Z,5.93
2018-12-17T10:07:11.359Z,6.00
2018-12-17T10:08:11.371Z,5.91
2018-12-17T10:09:11.397Z,5.89
2018-12-17T10:10:11.396Z,6.01
2018-12-17T10:11:11.402Z,5.93
2018-12-17T10:12:11.444Z,6.11
2018-12-17T10:13:11.434Z,5.96
2018-12-17T10:14:11.435Z,5.99
2018-12-17T10:15:11.464Z,6.03
2018-12-17T10:16:11.464Z,6.11
2018-12-17T10:17:11.472Z,6.04
2018-12-17T10:18:11.490Z,6.08
2018-12-17T10:19:11.493Z,6.09
2018-12-17T10:20:11.903Z,6.06
2018-12-17T10:21:11.512Z,6.04
2018-12-17T10:22:11.740Z,6.11
2018-12-17T10:23:11.541Z,6.08
2018-12-17T10:24:11.550Z,6.14
2018-12-17T10:25:11.722Z,6.12
2018-12-17T10:26:11.675Z,6.11
2018-12-17T10:27:12.910Z,6.11
2018-12-17T10:28:11.591Z,6.17
2018-12-17T10:30:11.609Z,6.21
2018-12-17T10:31:11.672Z,6.14
2018-12-17T10:32:11.632Z,6.19
2018-12-17T10:34:12.400Z,6.14
2018-12-17T10:35:11.763Z,6.19
2018-12-17T10:36:12.844Z,6.19
2018-12-17T10:37:11.690Z,6.22
2018-12-17T10:38:11.745Z,6.31
2018-12-17T10:39:11.713Z,6.31
2018-12-17T10:40:11.721Z,6.28
2018-12-17T10:41:11.727Z,6.28
2018-12-17T10:42:11.737Z,6.31
2018-12-17T10:43:11.847Z,6.30
2018-12-17T10:44:12.338Z,6.40
2018-12-17T10:45:11.778Z,6.28
2018-12-17T10:46:12.359Z,6.30
2018-12-17T10:47:11.797Z,6.43
2018-12-17T10:48:11.956Z,6.41
2018-12-17T10:49:11.815Z,6.44
2018-12-17T10:50:12.314Z,6.37
2018-12-17T10:51:11.893Z,6.36
2018-12-17T10:52:11.922Z,6.51
2018-12-17T10:53:11.983Z,6.46
2018-12-17T10:54:11.867Z,6.49
2018-12-17T10:55:11.878Z,6.41
2018-12-17T10:56:11.890Z,6.51
2018-12-17T10:57:11.901Z,6.46
2018-12-17T10:58:11.911Z,6.41
2018-12-17T10:59:11.925Z,6.48
2018-12-17T11:00:11.929Z,6.49
2018-12-17T11:01:11.940Z,6.52
2018-12-17T11:02:11.973Z,6.55
2018-12-17T11:03:11.965Z,6.54
2018-12-17T11:04:11.974Z,6.55
2018-12-17T11:05:11.988Z,6.55
2018-12-17T11:06:12.000Z,6.61
2018-12-17T11:07:12.011Z,6.55
2018-12-17T11:08:12.020Z,6.59
2018-12-17T11:09:12.035Z,6.58
2018-12-17T11:10:12.044Z,6.59
2018-12-17T11:11:12.055Z,6.67
2018-12-17T11:12:12.065Z,6.66
2018-12-17T11:13:12.079Z,6.66
2018-12-17T11:14:12.092Z,6.67
2018-12-17T11:15:12.095Z,6.64
2018-12-17T11:16:12.113Z,6.59
2018-12-17T11:17:12.120Z,6.64
2018-12-17T11:18:12.133Z,6.64
2018-12-17T11:19:12.138Z,6.66
2018-12-17T11:20:12.154Z,6.67
2018-12-17T11:21:12.164Z,6.71
2018-12-17T11:22:12.178Z,6.71
2018-12-17T11:23:12.183Z,6.73
2018-12-17T11:24:12.194Z,6.67
2018-12-17T11:25:12.208Z,6.67
2018-12-17T11:26:12.232Z,6.71
2018-12-17T11:27:12.255Z,6.69
2018-12-17T11:28:12.241Z,6.77
2018-12-17T11:29:12.255Z,6.74
2018-12-17T11:30:12.980Z,6.73
2018-12-17T11:31:12.278Z,6.73
2018-12-17T11:32:12.285Z,6.81
2018-12-17T11:33:12.293Z,6.84
2018-12-17T11:34:12.311Z,6.79
2018-12-17T11:35:12.329Z,6.80
2018-12-17T11:36:12.331Z,6.88
2018-12-17T11:37:12.348Z,6.84
2018-12-17T11:38:12.605Z,6.87
2018-12-17T11:39:12.371Z,6.91
2018-12-17T11:40:12.372Z,6.89
2018-12-17T11:41:12.383Z,6.89
2018-12-17T11:42:12.398Z,6.92
2018-12-17T11:43:12.405Z,6.95
2018-12-17T11:44:12.416Z,6.92
2018-12-17T11:45:12.428Z,6.95
2018-12-17T11:46:12.451Z,6.92
2018-12-17T11:47:12.452Z,6.92
2018-12-17T11:48:12.464Z,6.97
2018-12-17T11:49:12.475Z,6.99
2018-12-17T11:50:12.483Z,6.94
2018-12-17T11:51:12.496Z,7.03
2018-12-17T11:52:12.509Z,7.05
2018-12-17T11:53:12.524Z,6.92
2018-12-17T11:54:12.538Z,6.98
2018-12-17T11:55:12.586Z,7.05
2018-12-17T11:56:12.550Z,7.02
2018-12-17T11:57:12.566Z,7.05
2018-12-17T11:58:12.597Z,7.03
2018-12-17T11:59:12.582Z,7.05
2018-12-17T12:00:12.604Z,7.05
2018-12-17T12:01:12.607Z,7.05
2018-12-17T12:02:12.619Z,7.03
2018-12-17T12:03:12.629Z,7.03
2018-12-17T12:04:13.435Z,7.05
2018-12-17T12:05:12.654Z,7.02
2018-12-17T12:06:14.185Z,7.02
2018-12-17T12:07:12.679Z,6.95
2018-12-17T12:08:12.686Z,6.99
2018-12-17T12:09:12.699Z,6.95
2018-12-17T12:10:12.709Z,7.07
2018-12-17T12:11:12.720Z,7.02
2018-12-17T12:12:12.731Z,7.06
2018-12-17T12:13:12.759Z,7.10
2018-12-17T12:14:12.756Z,7.09
2018-12-17T12:15:12.768Z,7.07
2018-12-17T12:16:12.874Z,7.03
2018-12-17T12:17:12.790Z,7.13
2018-12-17T12:18:12.830Z,7.09
2018-12-17T12:19:12.815Z,7.07
2018-12-17T12:20:12.839Z,7.07
2018-12-17T12:21:12.832Z,7.03
2018-12-17T12:22:12.848Z,6.98
2018-12-17T12:23:12.858Z,7.05
2018-12-17T12:24:12.863Z,7.03
2018-12-17T12:25:12.883Z,7.06
2018-12-17T12:26:12.893Z,7.02
2018-12-17T12:27:12.900Z,7.09
2018-12-17T12:28:12.916Z,7.03
2018-12-17T12:29:12.927Z,7.05
2018-12-17T12:30:12.947Z,6.99
2018-12-17T12:31:12.947Z,7.10
2018-12-17T12:32:12.956Z,7.06
2018-12-17T12:33:12.991Z,7.03
2018-12-17T12:34:13.284Z,7.06
2018-12-17T12:35:12.989Z,7.03
2018-12-17T12:36:13.001Z,7.03
2018-12-17T12:37:13.021Z,7.15
2018-12-17T12:38:13.035Z,7.07
2018-12-17T12:39:13.051Z,7.13
2018-12-17T12:40:13.048Z,7.03
2018-12-17T12:41:13.057Z,7.12
2018-12-17T12:42:13.073Z,7.13
2018-12-17T12:43:13.076Z,7.15
2018-12-17T12:44:13.114Z,7.13
2018-12-17T12:45:13.107Z,7.13
2018-12-17T12:46:13.121Z,7.12
2018-12-17T12:47:13.132Z,7.15
2018-12-17T12:48:13.138Z,7.13
2018-12-17T12:49:13.176Z,7.06
2018-12-17T12:50:13.158Z,7.12
2018-12-17T12:51:13.167Z,7.16
2018-12-17T12:52:13.179Z,7.07
2018-12-17T12:53:13.217Z,7.10
2018-12-17T12:54:13.204Z,7.15
2018-12-17T12:55:13.233Z,7.16
2018-12-17T12:56:13.233Z,7.16
2018-12-17T12:57:13.247Z,7.12
2018-12-17T12:58:13.267Z,7.10
2018-12-17T12:59:13.274Z,7.13
2018-12-17T13:00:13.275Z,7.13
2018-12-17T13:01:13.285Z,7.12
2018-12-17T13:02:13.294Z,7.13
2018-12-17T13:03:13.308Z,7.12
2018-12-17T13:04:13.316Z,7.13
2018-12-17T13:05:13.329Z,7.10
2018-12-17T13:06:13.343Z,7.10
2018-12-17T13:07:13.362Z,7.15
2018-12-17T13:08:13.368Z,7.12
2018-12-17T13:09:13.594Z,7.12
2018-12-17T13:10:13.419Z,7.09
2018-12-17T13:11:13.396Z,7.10
2018-12-17T13:12:13.409Z,7.21
2018-12-17T13:13:13.417Z,7.24
2018-12-17T13:14:13.426Z,7.25
2018-12-17T13:15:13.439Z,7.21
2018-12-17T13:16:13.459Z,7.24
2018-12-17T13:17:13.464Z,7.25
2018-12-17T13:18:13.481Z,7.24
2018-12-17T13:19:13.486Z,7.25
2018-12-17T13:20:13.499Z,7.21
2018-12-17T13:21:13.669Z,7.23
2018-12-17T13:22:13.527Z,7.24
2018-12-17T13:23:13.532Z,7.17